Brockport, New York
Current Conditions -  °F | °C
As of 1:54 PM on Tuesday 21 Oct 2014 (Local Time) from KROC Reporting Station
Haze Haze  
Wind Chill: 55°   Ceiling: 1900
Heat Index: 55°   Visibility: 6mi
Dew Point: 50°   Wind: 6mph
Humidity: 83%   Direction: 20°NNE
Pressure: 29.86"   Gusts: NA
Location:  43.21°N, 77.94°W
Report Text: KROC 211754Z 02005KT 6SM BR SCT007 BKN019 OVC035 13/10 A2986 RMK AO2 RAE04 SLP115 BINOVC P0000 60006 T01280100 10128 20100 51005
Loading
Personal Weather Stations






























Interactive Weather Map
Tropical Storm Tracking
New forecast layout! Learn more

10-Day Weather Forecast

Advertisements
Track Severe Weather on mobile